Time;durP1;ratioP1;P1;durP2;ratioP2;P2;SDS_P1;SDS_P2;PMS_P1;PMS_P2;Temp;Humidity;BMP_temperature;BMP_pressure;BME280_temperature;BME280_humidity;BME280_pressure;Samples;Min_cycle;Max_cycle;Signal;HPM_P1;HPM_P2
2023/07/08 00:01:11;;;;;;;19.25;9.82;;;;;21.80;98642.00;;;;5014883;28;20552;-62
2023/07/08 00:03:37;;;;;;;17.20;9.50;;;;;21.70;98634.00;;;;5030854;28;20598;-61
2023/07/08 00:06:04;;;;;;;13.70;9.50;;;;;21.70;98641.00;;;;5015877;28;20052;-60
2023/07/08 00:08:31;;;;;;;13.98;9.60;;;;;21.70;98639.00;;;;5016139;28;20080;-61
2023/07/08 00:10:57;;;;;;;12.95;10.07;;;;;21.80;98640.00;;;;5015044;28;20038;-61
2023/07/08 00:13:24;;;;;;;16.23;9.48;;;;;21.90;98632.00;;;;5015401;28;20050;-62
2023/07/08 00:15:51;;;;;;;14.13;9.88;;;;;21.80;98638.00;;;;5015125;28;20137;-61
2023/07/08 00:18:18;;;;;;;15.32;10.07;;;;;21.60;98645.00;;;;5015184;28;20093;-62
2023/07/08 00:20:48;;;;;;;16.00;9.63;;;;;21.60;98646.00;;;;5015121;28;20136;-62
2023/07/08 00:23:16;;;;;;;12.90;9.32;;;;;21.50;98648.00;;;;5015405;28;20124;-62
2023/07/08 00:25:42;;;;;;;14.95;9.60;;;;;21.30;98650.00;;;;5014764;28;20132;-62
2023/07/08 00:28:13;;;;;;;14.60;9.77;;;;;21.30;98643.00;;;;5014854;28;20384;-61
2023/07/08 00:30:39;;;;;;;19.17;10.23;;;;;21.30;98644.00;;;;5014303;28;20057;-61
2023/07/08 00:33:06;;;;;;;15.18;9.77;;;;;21.30;98643.00;;;;5013326;28;20050;-63
2023/07/08 00:35:44;;;;;;;13.05;9.02;;;;;21.20;98632.00;;;;5013162;28;20050;-62
2023/07/08 00:38:15;;;;;;;14.00;9.82;;;;;21.10;98636.00;;;;5013513;28;20136;-63
2023/07/08 00:40:58;;;;;;;15.98;10.00;;;;;21.20;98635.00;;;;5029331;28;20057;-62
2023/07/08 00:43:33;;;;;;;12.25;8.88;;;;;21.30;98634.00;;;;5014630;28;20092;-62
2023/07/08 00:46:23;;;;;;;15.25;10.18;;;;;21.40;98625.00;;;;5014607;28;20062;-62
2023/07/08 00:48:53;;;;;;;14.80;10.20;;;;;21.30;98637.00;;;;5013190;28;20046;-62
2023/07/08 00:51:21;;;;;;;14.63;9.85;;;;;21.30;98636.00;;;;5014064;28;20045;-61
2023/07/08 00:53:48;;;;;;;17.92;10.80;;;;;21.30;98629.00;;;;5013128;28;20053;-62
2023/07/08 00:56:30;;;;;;;14.57;9.85;;;;;21.20;98635.00;;;;5014205;28;20483;-62
2023/07/08 00:59:05;;;;;;;16.42;9.85;;;;;21.30;98621.00;;;;5014310;28;20495;-63
2023/07/08 01:01:34;;;;;;;12.25;9.27;;;;;21.30;98622.00;;;;5029619;28;20056;-61
2023/07/08 01:04:07;;;;;;;13.02;9.98;;;;;21.40;98621.00;;;;5014703;28;20125;-62
2023/07/08 01:06:39;;;;;;;14.57;9.70;;;;;21.30;98618.00;;;;5029683;28;20045;-62
2023/07/08 01:09:10;;;;;;;14.40;9.40;;;;;21.20;98614.00;;;;5028308;28;20049;-62
2023/07/08 01:11:38;;;;;;;20.02;9.98;;;;;21.10;98609.00;;;;5014250;28;20038;-62
2023/07/08 01:14:07;;;;;;;14.82;10.18;;;;;21.20;98605.00;;;;5012751;28;20062;-61
2023/07/08 01:16:35;;;;;;;14.48;9.82;;;;;21.10;98603.00;;;;5014000;28;20092;-61
2023/07/08 01:19:04;;;;;;;15.02;9.38;;;;;21.10;98597.00;;;;4995897;28;20076;-62
2023/07/08 01:21:33;;;;;;;13.60;8.98;;;;;21.10;98600.00;;;;5012741;28;20050;-62
2023/07/08 01:24:03;;;;;;;14.05;9.25;;;;;21.10;98607.00;;;;4996363;28;20073;-62
2023/07/08 01:26:34;;;;;;;14.60;8.65;;;;;20.90;98596.00;;;;5012618;28;20045;-61
2023/07/08 01:29:02;;;;;;;13.85;8.75;;;;;20.70;98590.00;;;;5013135;28;20066;-62
2023/07/08 01:31:29;;;;;;;12.90;9.07;;;;;20.60;98586.00;;;;5012403;28;20146;-63
2023/07/08 01:33:55;;;;;;;16.55;9.30;;;;;20.50;98584.00;;;;5028867;28;20054;-62
2023/07/08 01:36:23;;;;;;;16.42;9.48;;;;;20.50;98586.00;;;;5028848;28;20247;-64
2023/07/08 01:38:51;;;;;;;15.48;9.32;;;;;20.50;98585.00;;;;5013656;28;20073;-63
2023/07/08 01:41:18;;;;;;;14.13;9.20;;;;;20.50;98585.00;;;;5013034;28;20104;-61
2023/07/08 01:43:45;;;;;;;14.68;10.07;;;;;20.50;98583.00;;;;5028715;28;20069;-63
2023/07/08 01:46:17;;;;;;;14.32;8.70;;;;;20.40;98580.00;;;;5028668;28;20129;-63
2023/07/08 01:48:48;;;;;;;16.45;9.18;;;;;20.30;98578.00;;;;5028727;28;20125;-63
2023/07/08 01:51:14;;;;;;;14.10;9.68;;;;;20.30;98575.00;;;;5011616;28;20108;-62
2023/07/08 01:53:43;;;;;;;14.80;10.13;;;;;20.40;98580.00;;;;5013515;28;20133;-62
2023/07/08 01:56:12;;;;;;;16.42;9.63;;;;;20.50;98573.00;;;;5011852;28;20042;-62
2023/07/08 01:58:40;;;;;;;15.85;10.40;;;;;20.70;98566.00;;;;5013579;28;20523;-62
2023/07/08 02:01:07;;;;;;;14.90;9.73;;;;;20.70;98575.00;;;;5012397;28;20072;-62
2023/07/08 02:03:34;;;;;;;14.18;9.57;;;;;20.70;98577.00;;;;5028105;28;20049;-62
2023/07/08 02:06:01;;;;;;;13.27;9.88;;;;;20.70;98580.00;;;;5011839;28;20038;-62
2023/07/08 02:08:28;;;;;;;15.07;9.80;;;;;20.70;98581.00;;;;5011718;28;20046;-62
2023/07/08 02:10:57;;;;;;;15.10;9.55;;;;;20.80;98584.00;;;;5011391;28;20037;-62
2023/07/08 02:13:25;;;;;;;14.85;9.45;;;;;20.80;98586.00;;;;5011610;28;20469;-63
2023/07/08 02:15:51;;;;;;;14.13;9.55;;;;;20.80;98601.00;;;;5012957;28;20120;-62
2023/07/08 02:18:19;;;;;;;13.40;8.75;;;;;20.70;98591.00;;;;5027744;28;20137;-62
2023/07/08 02:20:46;;;;;;;12.57;9.07;;;;;20.60;98605.00;;;;5011505;28;20428;-62
2023/07/08 02:23:14;;;;;;;13.55;9.15;;;;;20.50;98593.00;;;;4995418;28;20053;-63
2023/07/08 02:25:41;;;;;;;13.88;10.40;;;;;20.40;98591.00;;;;5012789;28;20622;-63
2023/07/08 02:28:07;;;;;;;11.50;8.45;;;;;20.30;98595.00;;;;5011414;28;20061;-63
2023/07/08 02:30:34;;;;;;;12.02;9.02;;;;;20.20;98596.00;;;;5010727;28;20054;-62
2023/07/08 02:33:01;;;;;;;13.00;8.73;;;;;20.40;98602.00;;;;5011162;28;20049;-63
2023/07/08 02:35:29;;;;;;;12.35;8.98;;;;;20.50;98593.00;;;;5012605;28;20052;-62
2023/07/08 02:37:57;;;;;;;12.38;8.85;;;;;20.60;98602.00;;;;5011688;28;20050;-62
2023/07/08 02:40:25;;;;;;;14.38;9.05;;;;;20.60;98602.00;;;;5010780;28;20053;-63
2023/07/08 02:42:53;;;;;;;14.38;8.88;;;;;20.70;98601.00;;;;5012908;28;20429;-63
2023/07/08 02:45:20;;;;;;;13.73;9.68;;;;;20.60;98605.00;;;;5012158;28;20479;-63
2023/07/08 02:47:46;;;;;;;14.85;8.73;;;;;20.40;98604.00;;;;5028864;28;20049;-63
2023/07/08 02:50:13;;;;;;;12.02;9.20;;;;;20.40;98611.00;;;;5012936;28;20046;-65
2023/07/08 02:52:39;;;;;;;13.38;8.90;;;;;20.30;98601.00;;;;5013434;28;20136;-64
2023/07/08 02:55:07;;;;;;;12.30;9.07;;;;;20.30;98602.00;;;;5013859;28;20403;-64
2023/07/08 02:57:33;;;;;;;14.38;9.15;;;;;20.30;98612.00;;;;5013031;28;20104;-65
2023/07/08 03:00:00;;;;;;;14.45;9.25;;;;;20.10;98613.00;;;;5012864;28;20046;-64
2023/07/08 03:02:27;;;;;;;14.65;9.30;;;;;20.20;98610.00;;;;5012853;28;20061;-64
2023/07/08 03:04:54;;;;;;;17.23;9.90;;;;;20.20;98603.00;;;;5027271;28;20073;-64
2023/07/08 03:07:20;;;;;;;11.45;8.82;;;;;20.30;98610.00;;;;5012469;28;20045;-63
2023/07/08 03:09:47;;;;;;;12.13;8.52;;;;;20.30;98607.00;;;;5010405;28;20132;-63
2023/07/08 03:12:14;;;;;;;12.88;9.30;;;;;20.40;98610.00;;;;5027446;28;20130;-63
2023/07/08 03:14:40;;;;;;;13.00;8.82;;;;;20.40;98618.00;;;;5027217;28;20076;-64
2023/07/08 03:17:07;;;;;;;11.68;8.05;;;;;20.30;98619.00;;;;4994507;28;20062;-64
2023/07/08 03:19:34;;;;;;;11.20;8.55;;;;;20.20;98613.00;;;;5010162;28;20050;-64
2023/07/08 03:22:04;;;;;;;13.18;9.07;;;;;20.20;98615.00;;;;5010846;28;20056;-64
2023/07/08 03:24:31;;;;;;;11.10;8.50;;;;;20.10;98613.00;;;;5012000;28;20064;-64
2023/07/08 03:27:04;;;;;;;13.55;8.77;;;;;20.10;98615.00;;;;5010603;28;20057;-64
2023/07/08 03:29:34;;;;;;;10.80;8.10;;;;;20.10;98613.00;;;;5026558;28;20074;-64
2023/07/08 03:32:00;;;;;;;14.18;9.55;;;;;20.00;98611.00;;;;5012472;28;20042;-65
2023/07/08 03:34:27;;;;;;;16.27;8.95;;;;;20.00;98606.00;;;;5015818;28;20046;-64
2023/07/08 03:36:54;;;;;;;12.77;9.48;;;;;20.00;98615.00;;;;5014630;28;20037;-63
2023/07/08 03:39:23;;;;;;;13.57;9.98;;;;;20.00;98608.00;;;;5015114;28;20414;-64
2023/07/08 03:41:51;;;;;;;11.95;8.80;;;;;20.00;98602.00;;;;5014760;28;20085;-64
2023/07/08 03:44:18;;;;;;;11.95;8.55;;;;;20.00;98612.00;;;;5014545;28;20057;-63
2023/07/08 03:46:49;;;;;;;14.45;8.75;;;;;20.00;98610.00;;;;5014604;28;20045;-63
2023/07/08 03:49:21;;;;;;;11.43;8.48;;;;;20.00;98617.00;;;;5030254;28;20426;-63
2023/07/08 03:51:50;;;;;;;13.88;9.27;;;;;20.10;98625.00;;;;5015606;28;20084;-62
2023/07/08 03:54:18;;;;;;;12.13;9.23;;;;;20.10;98613.00;;;;5015454;28;20049;-63
2023/07/08 03:56:45;;;;;;;12.80;8.98;;;;;20.10;98614.00;;;;5014255;28;20046;-64
2023/07/08 03:59:12;;;;;;;12.20;8.93;;;;;20.10;98610.00;;;;5030138;28;20046;-63
2023/07/08 04:01:40;;;;;;;12.50;9.60;;;;;20.00;98605.00;;;;5014102;28;20136;-63
2023/07/08 04:04:12;;;;;;;11.20;8.25;;;;;20.00;98612.00;;;;5014309;28;20050;-63
2023/07/08 04:06:39;;;;;;;13.25;8.57;;;;;20.00;98617.00;;;;5015624;28;20046;-63
2023/07/08 04:09:06;;;;;;;14.18;8.93;;;;;20.00;98617.00;;;;5030081;28;20090;-64
2023/07/08 04:11:33;;;;;;;13.05;8.60;;;;;20.00;98619.00;;;;5015360;28;20117;-64
2023/07/08 04:14:00;;;;;;;11.73;9.30;;;;;20.00;98615.00;;;;5015153;28;20056;-65
2023/07/08 04:16:29;;;;;;;13.88;9.70;;;;;19.90;98619.00;;;;4997400;28;20049;-64
2023/07/08 04:18:56;;;;;;;13.32;9.15;;;;;19.90;98623.00;;;;5014920;28;20042;-64
2023/07/08 04:21:27;;;;;;;12.18;9.00;;;;;20.10;98623.00;;;;5014741;28;20052;-64
2023/07/08 04:23:53;;;;;;;13.00;9.10;;;;;20.00;98626.00;;;;5014862;28;20050;-63
2023/07/08 04:26:20;;;;;;;13.68;9.77;;;;;20.10;98629.00;;;;5014915;28;20069;-65
2023/07/08 04:28:47;;;;;;;12.93;9.40;;;;;20.00;98627.00;;;;5014924;28;20053;-64
2023/07/08 04:31:14;;;;;;;14.10;9.18;;;;;20.10;98622.00;;;;5014314;28;20046;-64
2023/07/08 04:33:40;;;;;;;11.73;8.70;;;;;20.20;98614.00;;;;5014795;28;20383;-65
2023/07/08 04:36:13;;;;;;;14.27;9.35;;;;;20.20;98621.00;;;;5014655;28;20041;-63
2023/07/08 04:38:41;;;;;;;12.13;8.93;;;;;20.20;98624.00;;;;5014713;28;20061;-63
2023/07/08 04:41:08;;;;;;;11.65;9.00;;;;;20.10;98626.00;;;;5014118;28;20064;-64
2023/07/08 04:43:34;;;;;;;15.90;9.68;;;;;20.10;98630.00;;;;5013791;28;20122;-63
2023/07/08 04:46:01;;;;;;;13.15;8.70;;;;;20.10;98628.00;;;;5014520;28;20487;-64
2023/07/08 04:48:28;;;;;;;14.20;9.55;;;;;20.00;98627.00;;;;4997065;28;20050;-64
2023/07/08 04:50:54;;;;;;;12.68;9.25;;;;;20.00;98634.00;;;;5013932;28;20073;-63
2023/07/08 04:53:21;;;;;;;12.15;8.93;;;;;20.20;98636.00;;;;5014424;28;20121;-63
2023/07/08 04:55:54;;;;;;;13.63;9.73;;;;;20.20;98630.00;;;;5012861;28;20046;-62
2023/07/08 04:58:20;;;;;;;13.00;8.50;;;;;20.10;98644.00;;;;5014485;28;20052;-62
2023/07/08 05:00:47;;;;;;;12.85;9.35;;;;;20.10;98640.00;;;;5028853;28;20289;-62
2023/07/08 05:03:14;;;;;;;12.93;9.40;;;;;20.00;98637.00;;;;5014284;28;20053;-63
2023/07/08 05:05:41;;;;;;;13.48;9.13;;;;;20.10;98638.00;;;;5014296;28;20046;-63
2023/07/08 05:08:07;;;;;;;13.43;9.35;;;;;20.40;98640.00;;;;5029452;28;20089;-64
2023/07/08 05:10:34;;;;;;;12.88;9.32;;;;;20.50;98644.00;;;;5014023;28;20121;-63
2023/07/08 05:13:01;;;;;;;12.63;9.00;;;;;20.70;98642.00;;;;5014275;28;20050;-63
2023/07/08 05:15:28;;;;;;;11.52;8.60;;;;;20.90;98650.00;;;;5013828;28;20054;-63
2023/07/08 05:17:54;;;;;;;20.10;12.25;;;;;20.90;98648.00;;;;5014050;28;20498;-63
2023/07/08 05:20:22;;;;;;;15.65;10.82;;;;;20.80;98651.00;;;;5013391;28;20092;-63
2023/07/08 05:22:49;;;;;;;15.15;9.95;;;;;20.70;98637.00;;;;5013805;28;20209;-63
2023/07/08 05:25:20;;;;;;;13.90;9.90;;;;;20.80;98649.00;;;;5028941;28;20056;-64
2023/07/08 05:27:47;;;;;;;12.65;9.43;;;;;21.00;98660.00;;;;5012642;28;20052;-64
2023/07/08 05:30:17;;;;;;;13.70;9.48;;;;;21.10;98671.00;;;;5013360;28;20060;-64
2023/07/08 05:32:44;;;;;;;15.13;9.35;;;;;21.00;98663.00;;;;5013967;28;20144;-64
2023/07/08 05:35:11;;;;;;;13.55;9.07;;;;;21.00;98668.00;;;;5013679;28;20038;-64
2023/07/08 05:37:39;;;;;;;11.98;8.48;;;;;21.00;98673.00;;;;5013607;28;20042;-64
2023/07/08 05:40:07;;;;;;;13.70;10.15;;;;;21.00;98676.00;;;;5013034;28;20045;-63
2023/07/08 05:42:34;;;;;;;16.42;10.60;;;;;21.00;98674.00;;;;5013997;28;20567;-63
2023/07/08 05:45:00;;;;;;;12.40;10.02;;;;;21.10;98675.00;;;;5014902;28;20038;-64
2023/07/08 05:47:27;;;;;;;13.02;9.82;;;;;21.30;98681.00;;;;5015244;28;20040;-63
2023/07/08 05:49:54;;;;;;;13.70;9.18;;;;;21.40;98675.00;;;;5015750;28;20052;-63
2023/07/08 05:52:20;;;;;;;12.38;9.20;;;;;21.60;98674.00;;;;5017040;28;20041;-63
2023/07/08 05:54:47;;;;;;;15.93;9.77;;;;;21.80;98687.00;;;;5016870;28;20073;-64
2023/07/08 05:57:13;;;;;;;13.07;9.52;;;;;21.90;98684.00;;;;5020368;28;20049;-64
2023/07/08 05:59:40;;;;;;;11.95;8.85;;;;;22.10;98693.00;;;;5001613;28;20123;-63
2023/07/08 06:02:10;;;;;;;14.20;9.20;;;;;22.30;98688.00;;;;5015309;28;20073;-63
2023/07/08 06:04:36;;;;;;;19.45;9.98;;;;;22.10;98688.00;;;;5031716;28;20046;-64
2023/07/08 06:07:03;;;;;;;11.70;8.65;;;;;22.10;98686.00;;;;5017112;28;20054;-65
2023/07/08 06:09:29;;;;;;;13.02;8.52;;;;;22.20;98687.00;;;;5016325;28;20042;-64
2023/07/08 06:11:56;;;;;;;13.70;8.65;;;;;22.30;98693.00;;;;5015692;28;20046;-64
2023/07/08 06:14:23;;;;;;;12.27;8.30;;;;;22.40;98696.00;;;;5014370;28;20058;-63
2023/07/08 06:16:50;;;;;;;12.57;8.63;;;;;22.70;98706.00;;;;5014396;28;20046;-63
2023/07/08 06:19:17;;;;;;;12.13;8.15;;;;;22.90;98714.00;;;;5014308;28;20045;-65
2023/07/08 06:21:43;;;;;;;11.57;8.38;;;;;23.00;98706.00;;;;5017005;28;20052;-64
2023/07/08 06:24:10;;;;;;;12.07;8.82;;;;;23.10;98699.00;;;;5016426;28;20076;-64
2023/07/08 06:26:37;;;;;;;10.77;7.60;;;;;23.20;98707.00;;;;5014909;28;20118;-64
2023/07/08 06:29:04;;;;;;;11.90;7.90;;;;;23.30;98711.00;;;;5015321;28;20125;-63
2023/07/08 06:31:31;;;;;;;12.20;8.55;;;;;23.40;98715.00;;;;5015205;28;20128;-64
2023/07/08 06:33:58;;;;;;;12.27;8.57;;;;;23.50;98708.00;;;;5015746;28;20096;-65
2023/07/08 06:36:24;;;;;;;10.25;7.70;;;;;23.60;98714.00;;;;5031963;28;20488;-64
2023/07/08 06:38:51;;;;;;;10.38;7.95;;;;;23.70;98714.00;;;;5015258;28;20057;-65
2023/07/08 06:41:17;;;;;;;13.20;9.35;;;;;23.80;98712.00;;;;5014786;28;20101;-65
2023/07/08 06:43:44;;;;;;;11.25;8.30;;;;;23.90;98704.00;;;;5013947;28;20192;-65
2023/07/08 06:46:16;;;;;;;9.10;7.95;;;;;24.00;98712.00;;;;5030998;28;20449;-64
2023/07/08 06:48:42;;;;;;;9.77;7.70;;;;;24.10;98710.00;;;;5015696;28;20048;-65
2023/07/08 06:51:09;;;;;;;13.25;7.72;;;;;24.20;98706.00;;;;5020502;28;20049;-65
2023/07/08 06:53:35;;;;;;;9.73;7.35;;;;;24.20;98698.00;;;;5018977;28;20076;-64
2023/07/08 06:56:02;;;;;;;10.52;8.07;;;;;24.30;98702.00;;;;5016893;28;20060;-65
2023/07/08 06:58:29;;;;;;;8.38;6.93;;;;;24.60;98717.00;;;;5013929;28;20050;-63
2023/07/08 07:00:55;;;;;;;12.05;8.10;;;;;24.80;98716.00;;;;5013351;28;20129;-63
2023/07/08 07:03:24;;;;;;;10.27;6.90;;;;;24.80;98717.00;;;;5013666;28;20129;-63
2023/07/08 07:05:51;;;;;;;8.25;6.47;;;;;24.90;98723.00;;;;5012465;28;20042;-63
2023/07/08 07:08:17;;;;;;;10.02;7.20;;;;;25.00;98730.00;;;;5012819;28;20044;-63
2023/07/08 07:10:44;;;;;;;12.50;6.68;;;;;25.10;98738.00;;;;5012102;28;20507;-62
2023/07/08 07:13:10;;;;;;;9.57;6.82;;;;;25.20;98724.00;;;;5013057;28;20495;-62
2023/07/08 07:15:37;;;;;;;10.48;6.70;;;;;25.30;98738.00;;;;5012502;28;20038;-63
2023/07/08 07:18:04;;;;;;;10.45;7.35;;;;;25.50;98742.00;;;;5012668;28;20495;-63
2023/07/08 07:20:31;;;;;;;10.00;6.60;;;;;25.50;98748.00;;;;5027469;28;20061;-63
2023/07/08 07:22:57;;;;;;;11.23;6.63;;;;;25.60;98754.00;;;;5012696;28;20042;-63
2023/07/08 07:25:24;;;;;;;8.23;6.60;;;;;25.60;98756.00;;;;5012460;28;20050;-62
2023/07/08 07:27:51;;;;;;;10.10;6.32;;;;;25.60;98764.00;;;;5012801;28;20092;-64
2023/07/08 07:30:17;;;;;;;8.60;6.57;;;;;25.70;98752.00;;;;5011861;28;20060;-65
2023/07/08 07:32:44;;;;;;;10.60;6.57;;;;;25.80;98754.00;;;;5012427;28;20069;-65
2023/07/08 07:35:14;;;;;;;7.93;6.78;;;;;25.90;98755.00;;;;5012458;28;20049;-65
2023/07/08 07:37:42;;;;;;;10.15;6.85;;;;;25.90;98767.00;;;;4995504;28;20070;-66
2023/07/08 07:40:12;;;;;;;12.68;6.93;;;;;26.00;98763.00;;;;5011501;28;20124;-66
2023/07/08 07:42:40;;;;;;;9.82;6.55;;;;;26.10;98762.00;;;;5011982;28;20045;-65
2023/07/08 07:45:07;;;;;;;9.80;6.05;;;;;26.10;98765.00;;;;5012087;28;20049;-66
2023/07/08 07:47:34;;;;;;;12.73;7.20;;;;;26.10;98762.00;;;;5012280;28;20037;-64
2023/07/08 07:50:03;;;;;;;7.88;6.53;;;;;26.20;98760.00;;;;5012041;28;20057;-65
2023/07/08 07:52:30;;;;;;;9.43;7.32;;;;;26.30;98756.00;;;;5012999;28;20052;-65
2023/07/08 07:54:57;;;;;;;9.75;6.72;;;;;26.50;98766.00;;;;4994453;28;20146;-65
2023/07/08 07:57:25;;;;;;;9.90;6.47;;;;;26.50;98762.00;;;;5027100;28;20057;-64
2023/07/08 07:59:51;;;;;;;13.32;6.93;;;;;26.50;98764.00;;;;5011312;28;20045;-65
2023/07/08 08:02:18;;;;;;;11.32;6.55;;;;;26.50;98765.00;;;;5012489;28;20046;-65
2023/07/08 08:04:46;;;;;;;8.45;5.75;;;;;26.50;98760.00;;;;5010552;28;20502;-64
2023/07/08 08:07:13;;;;;;;10.45;5.57;;;;;26.60;98752.00;;;;5027140;28;20121;-66
2023/07/08 08:09:39;;;;;;;8.45;5.80;;;;;26.60;98751.00;;;;5011300;28;20052;-65
2023/07/08 08:12:09;;;;;;;8.93;5.95;;;;;26.80;98754.00;;;;5012165;28;20459;-65
2023/07/08 08:14:35;;;;;;;11.10;5.68;;;;;26.90;98754.00;;;;5011708;28;20046;-65
2023/07/08 08:17:02;;;;;;;11.38;6.45;;;;;27.00;98761.00;;;;5012010;28;20042;-65
2023/07/08 08:19:29;;;;;;;7.50;6.03;;;;;27.10;98751.00;;;;5013703;28;20128;-66
2023/07/08 08:21:56;;;;;;;9.60;5.50;;;;;27.20;98760.00;;;;5015313;28;20048;-65
2023/07/08 08:24:22;;;;;;;9.80;5.82;;;;;27.40;98762.00;;;;5015197;28;20102;-65
2023/07/08 08:26:51;;;;;;;10.20;6.15;;;;;27.50;98754.00;;;;5030112;28;20058;-66
2023/07/08 08:29:18;;;;;;;7.72;5.85;;;;;27.60;98759.00;;;;5014756;28;20050;-66
2023/07/08 08:31:45;;;;;;;7.90;6.25;;;;;27.70;98756.00;;;;5014456;28;20137;-66
2023/07/08 08:34:11;;;;;;;8.20;5.13;;;;;27.80;98764.00;;;;5014114;28;20053;-66
2023/07/08 08:36:38;;;;;;;10.93;7.45;;;;;27.90;98770.00;;;;4997560;28;20451;-66
2023/07/08 08:39:04;;;;;;;11.55;6.82;;;;;28.00;98773.00;;;;5014280;28;20062;-65
2023/07/08 08:41:34;;;;;;;9.57;6.07;;;;;28.10;98768.00;;;;5030321;28;20161;-67
2023/07/08 08:44:02;;;;;;;10.30;6.10;;;;;28.10;98761.00;;;;5013701;28;20146;-67
2023/07/08 08:46:56;;;;;;;9.75;6.22;;;;;28.30;98764.00;;;;5013949;28;20073;-66
2023/07/08 08:49:30;;;;;;;10.48;6.38;;;;;28.40;98778.00;;;;5014508;28;20058;-67
2023/07/08 08:51:58;;;;;;;10.98;6.20;;;;;28.40;98783.00;;;;5014870;28;20046;-66
2023/07/08 08:54:25;;;;;;;10.48;7.07;;;;;28.40;98780.00;;;;4997742;28;20217;-67
2023/07/08 08:57:16;;;;;;;8.68;6.00;;;;;28.40;98776.00;;;;5014214;28;20042;-66
2023/07/08 08:59:53;;;;;;;11.55;7.30;;;;;28.20;98772.00;;;;5014274;28;20050;-67
2023/07/08 09:02:36;;;;;;;8.35;6.70;;;;;28.40;98783.00;;;;5029734;28;20144;-66
2023/07/08 09:05:08;;;;;;;9.27;5.70;;;;;28.50;98779.00;;;;5014562;28;20046;-66
2023/07/08 09:08:03;;;;;;;11.43;7.13;;;;;28.60;98774.00;;;;5029606;28;20835;-68
2023/07/08 09:10:48;;;;;;;8.27;5.68;;;;;28.60;98768.00;;;;5012704;28;20293;-68
2023/07/08 09:13:26;;;;;;;8.10;5.53;;;;;28.70;98773.00;;;;5014265;28;20054;-66
2023/07/08 09:16:07;;;;;;;8.85;6.28;;;;;28.80;98769.00;;;;5029378;28;20054;-68
2023/07/08 09:18:46;;;;;;;8.55;5.78;;;;;28.90;98764.00;;;;5013101;28;20041;-66
2023/07/08 09:21:19;;;;;;;8.48;5.85;;;;;28.90;98766.00;;;;5029026;28;20076;-67
2023/07/08 09:23:49;;;;;;;7.10;5.45;;;;;28.90;98762.00;;;;5014004;28;20049;-66
2023/07/08 09:26:21;;;;;;;10.23;6.03;;;;;29.10;98763.00;;;;5029371;28;20072;-66
2023/07/08 09:28:47;;;;;;;10.13;6.20;;;;;29.20;98766.00;;;;5012578;28;20081;-64
2023/07/08 09:31:23;;;;;;;9.98;7.50;;;;;29.30;98767.00;;;;5028902;28;20650;-67
2023/07/08 09:33:52;;;;;;;13.43;5.97;;;;;29.40;98770.00;;;;5013245;28;20151;-66
2023/07/08 09:36:23;;;;;;;7.30;5.75;;;;;29.30;98773.00;;;;5029393;28;20055;-66
2023/07/08 09:38:51;;;;;;;11.82;6.63;;;;;29.50;98768.00;;;;5029799;28;20046;-66
2023/07/08 09:41:33;;;;;;;11.10;5.75;;;;;29.60;98774.00;;;;5012495;28;20053;-66
2023/07/08 09:44:14;;;;;;;7.55;5.80;;;;;29.70;98773.00;;;;5029025;28;20124;-66
2023/07/08 09:46:40;;;;;;;7.75;5.75;;;;;29.70;98772.00;;;;5013871;28;20499;-67
2023/07/08 09:49:23;;;;;;;7.18;5.55;;;;;29.70;98774.00;;;;5028420;28;20052;-66
2023/07/08 09:51:51;;;;;;;13.32;5.72;;;;;29.70;98771.00;;;;5013701;28;20038;-66
2023/07/08 09:54:19;;;;;;;7.25;5.40;;;;;29.80;98774.00;;;;5013124;28;20038;-66
2023/07/08 09:56:56;;;;;;;7.55;6.03;;;;;29.70;98774.00;;;;5028266;28;20041;-66
2023/07/08 09:59:32;;;;;;;8.32;5.68;;;;;29.70;98776.00;;;;5011973;28;20045;-66
2023/07/08 10:02:25;;;;;;;6.55;5.43;;;;;29.70;98780.00;;;;5013651;28;20042;-66
2023/07/08 10:04:53;;;;;;;10.00;6.10;;;;;29.70;98777.00;;;;4995485;28;20116;-66
2023/07/08 10:07:19;;;;;;;8.98;5.80;;;;;29.70;98779.00;;;;5012271;28;20129;-65
2023/07/08 10:09:50;;;;;;;9.70;6.30;;;;;29.90;98783.00;;;;5027752;28;20049;-65
2023/07/08 10:12:17;;;;;;;7.93;6.65;;;;;30.00;98779.00;;;;5028428;28;20485;-65
2023/07/08 10:14:50;;;;;;;9.40;5.80;;;;;30.10;98781.00;;;;5012987;28;20054;-66
2023/07/08 10:17:19;;;;;;;8.43;5.50;;;;;30.10;98785.00;;;;4995547;28;20053;-65
2023/07/08 10:19:47;;;;;;;9.30;5.90;;;;;30.20;98780.00;;;;5011408;28;20050;-66
2023/07/08 10:22:40;;;;;;;7.45;6.22;;;;;30.50;98785.00;;;;5028171;28;20392;-66
2023/07/08 10:25:27;;;;;;;9.35;6.15;;;;;30.70;98792.00;;;;5012767;28;20128;-66
2023/07/08 10:28:03;;;;;;;8.27;5.85;;;;;30.80;98791.00;;;;5011618;28;20104;-66
2023/07/08 10:30:39;;;;;;;8.68;5.65;;;;;30.90;98792.00;;;;5010891;28;20061;-66
2023/07/08 10:33:51;;;;;;;9.02;5.32;;;;;31.00;98784.00;;;;4994935;28;20475;-66
2023/07/08 10:36:29;;;;;;;7.95;5.50;;;;;30.90;98791.00;;;;4995479;28;20049;-65
2023/07/08 10:39:10;;;;;;;6.10;5.20;;;;;30.80;98791.00;;;;5011686;28;20049;-65
2023/07/08 10:41:48;;;;;;;7.03;5.40;;;;;31.00;98778.00;;;;5012313;28;20550;-66
2023/07/08 10:44:52;;;;;;;7.07;4.85;;;;;31.20;98781.00;;;;5027784;28;20072;-65
2023/07/08 10:47:40;;;;;;;8.52;5.63;;;;;31.30;98771.00;;;;5011231;28;20553;-65
2023/07/08 10:50:41;;;;;;;8.20;5.20;;;;;31.30;98774.00;;;;5010826;28;20506;-64
2023/07/08 10:53:53;;;;;;;7.15;5.78;;;;;31.50;98776.00;;;;5027944;28;20048;-66
2023/07/08 10:56:36;;;;;;;10.02;5.05;;;;;31.50;98771.00;;;;5012864;28;20057;-67
2023/07/08 10:59:15;;;;;;;7.88;4.95;;;;;31.50;98776.00;;;;4994516;28;20042;-65
2023/07/08 11:01:51;;;;;;;10.50;6.55;;;;;31.60;98770.00;;;;4995329;28;20140;-66
2023/07/08 11:04:39;;;;;;;6.15;4.97;;;;;31.60;98766.00;;;;4995049;28;20053;-65
2023/07/08 11:07:17;;;;;;;51.03;41.70;;;;;31.60;98773.00;;;;5011184;28;20045;-66
2023/07/08 11:09:54;;;;;;;7.50;5.38;;;;;31.50;98765.00;;;;4994243;28;20053;-66
2023/07/08 11:12:47;;;;;;;8.93;5.45;;;;;31.70;98775.00;;;;5011151;28;20138;-65
2023/07/08 11:15:26;;;;;;;;;;;;;31.80;98772.00;;;;5011322;28;20050;-66
2023/07/08 11:18:01;;;;;;;8.13;5.00;;;;;31.80;98768.00;;;;5027319;28;20012;-65
2023/07/08 11:20:43;;;;;;;8.82;5.50;;;;;32.00;98774.00;;;;5010649;28;20054;-66
2023/07/08 11:23:42;;;;;;;6.55;4.63;;;;;32.10;98770.00;;;;5027103;28;20046;-68
2023/07/08 11:26:38;;;;;;;8.00;5.97;;;;;32.20;98770.00;;;;5010762;28;20041;-66
2023/07/08 11:29:15;;;;;;;8.45;5.18;;;;;32.30;98761.00;;;;4993804;28;20050;-66
2023/07/08 11:31:42;;;;;;;7.22;5.32;;;;;32.20;98762.00;;;;5026931;28;20056;-66
2023/07/08 11:34:12;;;;;;;5.57;4.70;;;;;32.20;98764.00;;;;5026872;28;20065;-65
2023/07/08 11:36:39;;;;;;;5.70;4.57;;;;;32.30;98751.00;;;;5010881;28;20046;-66
2023/07/08 11:39:46;;;;;;;7.18;4.25;;;;;32.50;98747.00;;;;5011500;28;20042;-68
2023/07/08 11:42:21;;;;;;;6.53;4.95;;;;;32.60;98755.00;;;;5011728;28;20129;-68
2023/07/08 11:44:55;;;;;;;5.20;4.30;;;;;32.70;98747.00;;;;5010713;28;20071;-68
2023/07/08 11:47:46;;;;;;;6.70;4.50;;;;;32.80;98751.00;;;;5018062;28;20056;-67
2023/07/08 11:50:30;;;;;;;9.05;4.68;;;;;32.90;98739.00;;;;5023525;28;20050;-67
2023/07/08 11:53:03;;;;;;;7.07;4.22;;;;;32.90;98744.00;;;;5038480;28;20057;-67
2023/07/08 11:55:43;;;;;;;6.72;4.72;;;;;33.10;98742.00;;;;5030868;28;20056;-67
2023/07/08 11:58:24;;;;;;;8.32;4.95;;;;;33.10;98742.00;;;;5034413;28;20042;-66
2023/07/08 12:00:58;;;;;;;8.60;4.65;;;;;33.10;98736.00;;;;5050304;28;20073;-66
2023/07/08 12:03:34;;;;;;;8.50;4.63;;;;;33.30;98728.00;;;;5031320;28;20442;-65
2023/07/08 12:06:06;;;;;;;11.20;5.85;;;;;33.40;98725.00;;;;5030690;28;20096;-66
2023/07/08 12:08:37;;;;;;;6.80;5.47;;;;;33.60;98722.00;;;;5014127;28;20058;-65
2023/07/08 12:11:11;;;;;;;11.85;4.45;;;;;33.80;98725.00;;;;5030006;28;20575;-65
2023/07/08 12:13:38;;;;;;;11.10;5.18;;;;;33.90;98723.00;;;;5015365;28;20046;-65
2023/07/08 12:16:12;;;;;;;7.47;4.80;;;;;34.00;98723.00;;;;5015293;28;20438;-65
2023/07/08 12:18:45;;;;;;;6.68;4.40;;;;;34.10;98719.00;;;;5015151;28;20045;-65
2023/07/08 12:21:13;;;;;;;7.90;4.25;;;;;34.30;98710.00;;;;5013575;28;20462;-66
2023/07/08 12:23:47;;;;;;;6.60;4.97;;;;;34.40;98719.00;;;;5014015;28;20046;-66
2023/07/08 12:26:14;;;;;;;6.70;4.80;;;;;34.50;98710.00;;;;5015076;28;20076;-67
2023/07/08 12:28:42;;;;;;;7.30;5.07;;;;;34.60;98714.00;;;;5030064;28;20403;-65